Time;durP1;ratioP1;P1;durP2;ratioP2;P2;SDS_P1;SDS_P2;PMS_P1;PMS_P2;Temp;Humidity;BMP_temperature;BMP_pressure;BME280_temperature;BME280_humidity;BME280_pressure;Samples;Min_cycle;Max_cycle;Signal;HPM_P1;HPM_P2
2021/01/20 00:00:50;;;;;;;3.13;1.85;;;7.00;92.40;;;;;;4209818;28;20515;-88
2021/01/20 00:02:51;;;;;;;0.45;0.45;;;7.00;92.60;;;;;;4180205;28;20589;-88
2021/01/20 00:04:53;;;;;;;1.85;1.40;;;7.00;92.60;;;;;;4182646;28;20103;-89
2021/01/20 00:06:54;;;;;;;0.52;0.52;;;7.00;92.80;;;;;;4177065;28;20136;-89
2021/01/20 00:08:55;;;;;;;0.45;0.45;;;7.00;92.90;;;;;;4165558;28;20073;-89
2021/01/20 00:10:57;;;;;;;1.85;0.40;;;7.00;92.80;;;;;;4181992;28;20072;-89
2021/01/20 00:12:58;;;;;;;1.38;1.27;;;6.90;93.20;;;;;;4181343;28;20045;-89
2021/01/20 00:14:59;;;;;;;1.58;0.93;;;6.90;93.60;;;;;;4166526;28;20069;-88
2021/01/20 00:17:01;;;;;;;1.92;0.95;;;6.90;93.70;;;;;;4162747;28;20054;-88
2021/01/20 00:19:03;;;;;;;0.60;0.32;;;6.80;93.90;;;;;;4183833;28;20045;-89
2021/01/20 00:21:04;;;;;;;1.20;0.75;;;6.90;94.20;;;;;;4180643;28;20041;-88
2021/01/20 00:23:05;;;;;;;1.65;1.55;;;6.90;94.20;;;;;;4177746;28;20337;-89
2021/01/20 00:25:07;;;;;;;0.40;0.32;;;6.90;94.20;;;;;;4182186;28;20509;-88
2021/01/20 00:27:09;;;;;;;1.00;0.85;;;6.90;94.30;;;;;;4161218;28;20054;-88
2021/01/20 00:29:10;;;;;;;0.75;0.57;;;6.90;94.40;;;;;;4165501;28;20076;-88
2021/01/20 00:31:12;;;;;;;1.35;1.10;;;6.90;94.50;;;;;;4182099;28;20092;-88
2021/01/20 00:33:13;;;;;;;0.73;0.40;;;6.80;94.60;;;;;;4165264;28;20148;-89
2021/01/20 00:35:15;;;;;;;0.63;0.25;;;6.90;94.50;;;;;;4181343;28;20402;-89
2021/01/20 00:37:16;;;;;;;4.55;1.33;;;6.90;94.30;;;;;;4181958;28;20041;-88
2021/01/20 00:39:18;;;;;;;0.73;0.40;;;7.00;94.50;;;;;;4196807;28;20052;-88
2021/01/20 00:41:19;;;;;;;0.50;0.50;;;6.90;94.70;;;;;;4165248;28;20116;-89
2021/01/20 00:43:20;;;;;;;0.30;0.30;;;6.90;94.60;;;;;;4198602;28;20471;-89
2021/01/20 00:45:21;;;;;;;0.73;0.47;;;7.00;95.00;;;;;;4165022;28;20128;-91
2021/01/20 00:47:23;;;;;;;0.88;0.55;;;7.00;95.20;;;;;;4165439;28;20057;-88
2021/01/20 00:49:24;;;;;;;0.28;0.28;;;7.00;95.30;;;;;;4165050;28;20087;-87
2021/01/20 00:51:25;;;;;;;1.15;1.15;;;7.00;95.50;;;;;;4164939;28;20049;-88
2021/01/20 00:53:27;;;;;;;2.60;1.00;;;7.00;95.60;;;;;;4163394;28;20049;-89
2021/01/20 00:55:28;;;;;;;0.77;0.68;;;7.00;95.50;;;;;;4198236;28;20086;-89
2021/01/20 00:57:29;;;;;;;1.15;0.88;;;7.10;96.10;;;;;;4180952;28;20483;-88
2021/01/20 00:59:31;;;;;;;1.85;1.38;;;7.10;96.20;;;;;;4158371;28;20069;-88
2021/01/20 01:01:32;;;;;;;1.52;0.95;;;7.20;96.80;;;;;;4197434;28;20136;-88
2021/01/20 01:03:34;;;;;;;1.17;0.82;;;7.20;96.20;;;;;;4181028;28;20049;-89
2021/01/20 01:05:36;;;;;;;1.10;1.00;;;7.30;97.00;;;;;;4178426;28;20504;-89
2021/01/20 01:07:37;;;;;;;2.15;1.38;;;7.40;97.10;;;;;;4197553;28;20045;-90
2021/01/20 01:09:39;;;;;;;0.45;0.45;;;7.40;96.80;;;;;;4165319;28;20057;-88
2021/01/20 01:11:40;;;;;;;0.93;0.40;;;7.50;96.70;;;;;;4180949;28;20048;-89
2021/01/20 01:13:41;;;;;;;0.20;0.20;;;7.50;96.70;;;;;;4164980;28;20076;-89
2021/01/20 01:15:42;;;;;;;0.47;0.45;;;7.50;96.70;;;;;;4181127;28;20049;-88
2021/01/20 01:17:44;;;;;;;1.40;0.93;;;7.50;96.70;;;;;;4181743;28;20480;-88
2021/01/20 01:19:45;;;;;;;3.03;0.98;;;7.50;96.90;;;;;;4163278;28;20103;-88
2021/01/20 01:21:46;;;;;;;0.20;0.20;;;7.50;96.90;;;;;;4181375;28;20532;-88
2021/01/20 01:23:48;;;;;;;0.22;0.22;;;7.50;96.90;;;;;;4164298;28;20055;-89
2021/01/20 01:25:52;;;;;;;0.10;0.10;;;7.50;97.00;;;;;;4165089;28;20569;-88
2021/01/20 01:27:53;;;;;;;1.15;1.05;;;7.50;96.90;;;;;;4166837;28;20072;-88
2021/01/20 01:29:54;;;;;;;0.30;0.30;;;7.50;97.00;;;;;;4165937;28;20045;-89
2021/01/20 01:31:56;;;;;;;1.83;0.70;;;7.40;97.00;;;;;;4195698;28;20068;-89
2021/01/20 01:33:57;;;;;;;0.40;0.40;;;7.40;97.30;;;;;;4180966;28;20596;-90
2021/01/20 01:35:59;;;;;;;0.20;0.20;;;7.30;97.20;;;;;;4174364;28;20047;-88
2021/01/20 01:38:03;;;;;;;0.85;0.30;;;7.30;97.40;;;;;;4164246;28;20056;-88
2021/01/20 01:40:05;;;;;;;0.52;0.50;;;7.30;97.60;;;;;;4176954;28;20049;-89
2021/01/20 01:42:06;;;;;;;0.73;0.73;;;7.40;97.80;;;;;;4163734;28;20049;-89
2021/01/20 01:44:07;;;;;;;0.80;0.80;;;7.40;97.60;;;;;;4197029;28;20143;-89
2021/01/20 01:46:09;;;;;;;5.28;1.42;;;7.40;97.70;;;;;;4165692;28;20060;-88
2021/01/20 01:48:10;;;;;;;0.45;0.35;;;7.40;97.70;;;;;;4179698;28;20122;-88
2021/01/20 01:50:12;;;;;;;0.50;0.30;;;7.40;97.60;;;;;;4162365;28;20049;-90
2021/01/20 01:52:13;;;;;;;0.40;0.40;;;7.40;97.90;;;;;;4186091;28;20076;-89
2021/01/20 01:54:15;;;;;;;1.27;0.77;;;7.40;97.60;;;;;;4199348;28;20108;-89
2021/01/20 01:56:17;;;;;;;1.30;0.95;;;7.30;97.80;;;;;;4191952;28;20053;-89
2021/01/20 01:58:18;;;;;;;0.93;0.68;;;7.30;97.90;;;;;;4180918;28;20052;-90
2021/01/20 02:00:20;;;;;;;0.60;0.40;;;7.40;98.20;;;;;;4161624;28;20525;-89
2021/01/20 02:02:21;;;;;;;1.02;0.93;;;7.30;98.00;;;;;;4179930;28;20565;-90
2021/01/20 02:04:22;;;;;;;0.95;0.75;;;7.40;98.00;;;;;;4180909;28;20052;-89
2021/01/20 02:06:23;;;;;;;1.15;0.88;;;7.40;98.10;;;;;;4180115;28;20589;-89
2021/01/20 02:08:25;;;;;;;0.20;0.20;;;7.40;98.00;;;;;;4177767;28;20049;-89
2021/01/20 02:10:26;;;;;;;0.77;0.43;;;7.40;98.00;;;;;;4164344;28;20148;-89
2021/01/20 02:12:34;;;;;;;0.98;0.73;;;7.30;98.70;;;;;;4196085;28;20127;-89
2021/01/20 02:14:44;;;;;;;1.10;0.90;;;7.30;98.30;;;;;;4178633;28;20152;-89
2021/01/20 02:16:59;;;;;;;0.63;0.63;;;7.30;98.40;;;;;;4165390;28;20516;-89
2021/01/20 02:19:01;;;;;;;0.60;0.40;;;7.40;98.50;;;;;;4196127;28;20066;-90
2021/01/20 02:21:13;;;;;;;0.70;0.40;;;7.40;98.30;;;;;;4176817;28;20803;-89
2021/01/20 02:23:18;;;;;;;0.73;0.70;;;7.40;98.50;;;;;;4193620;28;20120;-86
2021/01/20 02:25:31;;;;;;;0.45;0.40;;;7.40;98.70;;;;;;4164098;28;20561;-89
2021/01/20 02:27:51;;;;;;;0.73;0.50;;;7.40;98.60;;;;;;4193850;28;20505;-89
2021/01/20 02:29:55;;;;;;;0.50;0.50;;;7.40;98.50;;;;;;4154858;28;20049;-89
2021/01/20 02:31:57;;;;;;;0.30;0.30;;;7.40;98.70;;;;;;4183302;28;20572;-89
2021/01/20 02:34:06;;;;;;;0.13;0.13;;;7.40;98.50;;;;;;4197256;28;20075;-89
2021/01/20 02:36:07;;;;;;;0.43;0.43;;;7.40;98.70;;;;;;4164241;28;20053;-89
2021/01/20 02:38:08;;;;;;;0.80;0.80;;;7.50;98.80;;;;;;4165805;28;20153;-89
2021/01/20 02:40:10;;;;;;;3.50;1.45;;;7.50;98.80;;;;;;4166290;28;20057;-89
2021/01/20 02:42:11;;;;;;;0.10;0.10;;;7.50;99.00;;;;;;4163633;28;20046;-88
2021/01/20 02:44:13;;;;;;;0.40;0.38;;;7.50;99.50;;;;;;4159875;28;20056;-89
2021/01/20 02:46:14;;;;;;;0.30;0.30;;;7.60;99.60;;;;;;4164451;28;20069;-89
2021/01/20 02:48:16;;;;;;;0.20;0.20;;;7.70;99.30;;;;;;4178190;28;20075;-89
2021/01/20 02:50:17;;;;;;;2.50;0.55;;;7.70;99.00;;;;;;4176960;28;20056;-89
2021/01/20 02:52:40;;;;;;;0.20;0.20;;;7.70;99.10;;;;;;4167399;28;20156;-89
2021/01/20 02:54:41;;;;;;;0.30;0.30;;;7.70;98.90;;;;;;4215867;28;20432;-90
2021/01/20 02:56:46;;;;;;;1.38;0.63;;;7.70;98.80;;;;;;4166538;28;20050;-89
2021/01/20 02:58:47;;;;;;;0.38;0.30;;;7.70;98.80;;;;;;4168604;28;20045;-89
2021/01/20 03:00:49;;;;;;;4.57;0.60;;;7.70;98.70;;;;;;4186849;28;20527;-88
2021/01/20 03:02:52;;;;;;;2.08;1.35;;;7.70;98.70;;;;;;4179363;28;20609;-88
2021/01/20 03:04:53;;;;;;;0.47;0.47;;;7.80;99.10;;;;;;4168707;28;20049;-89
2021/01/20 03:06:56;;;;;;;1.40;0.77;;;7.80;98.90;;;;;;4183436;28;20076;-89
2021/01/20 03:08:57;;;;;;;0.30;0.30;;;7.80;99.00;;;;;;4183352;28;20056;-89
2021/01/20 03:11:02;;;;;;;0.65;0.65;;;7.80;98.80;;;;;;4181365;28;20049;-89
2021/01/20 03:13:05;;;;;;;0.70;0.30;;;7.80;99.00;;;;;;4183273;28;20059;-89
2021/01/20 03:15:13;;;;;;;0.63;0.63;;;7.80;99.10;;;;;;4182834;28;20052;-89
2021/01/20 03:17:14;;;;;;;0.40;0.30;;;7.80;99.00;;;;;;4163920;28;20045;-89
2021/01/20 03:19:15;;;;;;;1.17;0.38;;;7.80;99.30;;;;;;4166850;28;20095;-89
2021/01/20 03:21:17;;;;;;;0.25;0.20;;;7.90;99.60;;;;;;4197092;28;20143;-89
2021/01/20 03:23:18;;;;;;;0.28;0.28;;;7.90;99.70;;;;;;4166654;28;20494;-89
2021/01/20 03:25:19;;;;;;;1.02;0.40;;;8.00;99.90;;;;;;4199873;28;20045;-90
2021/01/20 03:27:21;;;;;;;0.52;0.40;;;8.10;99.70;;;;;;4214722;28;20063;-91
2021/01/20 03:29:22;;;;;;;0.20;0.20;;;8.10;99.80;;;;;;4166183;28;20056;-91
2021/01/20 03:31:23;;;;;;;3.70;0.30;;;8.10;99.80;;;;;;4183442;28;20049;-89
2021/01/20 03:33:25;;;;;;;1.75;1.42;;;8.10;99.90;;;;;;4167640;28;20120;-89
2021/01/20 03:35:27;;;;;;;1.40;0.57;;;8.10;99.90;;;;;;4183530;28;20412;-89
2021/01/20 03:37:28;;;;;;;0.30;0.30;;;8.10;99.90;;;;;;4183570;28;20053;-89
2021/01/20 03:39:29;;;;;;;0.15;0.15;;;8.20;99.90;;;;;;4180921;28;20055;-89
2021/01/20 03:41:31;;;;;;;0.25;0.20;;;8.20;99.90;;;;;;4197940;28;20041;-89
2021/01/20 03:43:32;;;;;;;0.90;0.90;;;8.30;99.90;;;;;;4199376;28;20080;-90
2021/01/20 03:45:33;;;;;;;0.43;0.40;;;8.30;99.90;;;;;;4176056;28;20080;-89
2021/01/20 03:47:35;;;;;;;0.30;0.30;;;8.30;99.90;;;;;;4168642;28;20088;-89
2021/01/20 03:49:36;;;;;;;1.23;0.98;;;8.30;99.90;;;;;;4200672;28;20049;-89
2021/01/20 03:51:37;;;;;;;0.57;0.28;;;8.30;99.90;;;;;;4198507;28;20056;-90
2021/01/20 03:53:39;;;;;;;0.20;0.20;;;8.40;99.90;;;;;;4165825;28;20142;-89
2021/01/20 03:55:40;;;;;;;0.30;0.30;;;8.40;99.90;;;;;;4165983;28;20052;-89
2021/01/20 03:57:41;;;;;;;0.40;0.30;;;8.30;99.90;;;;;;4181501;28;20063;-90
2021/01/20 03:59:43;;;;;;;0.55;0.55;;;8.40;99.90;;;;;;4181866;28;20053;-89
2021/01/20 04:01:44;;;;;;;0.73;0.63;;;8.30;99.90;;;;;;4182945;28;20048;-90
2021/01/20 04:03:45;;;;;;;0.28;0.28;;;8.30;99.90;;;;;;4168401;28;20547;-89
2021/01/20 04:05:47;;;;;;;0.32;0.30;;;8.40;99.90;;;;;;4182302;28;20069;-89
2021/01/20 04:07:48;;;;;;;0.38;0.28;;;8.40;99.90;;;;;;4165487;28;20057;-89
2021/01/20 04:09:49;;;;;;;0.63;0.40;;;8.40;99.90;;;;;;4196850;28;20508;-91
2021/01/20 04:11:51;;;;;;;0.52;0.43;;;8.40;99.90;;;;;;4182244;28;20056;-89
2021/01/20 04:13:52;;;;;;;0.25;0.20;;;8.40;99.90;;;;;;4165502;28;20124;-90
2021/01/20 04:15:54;;;;;;;2.63;1.33;;;8.50;99.90;;;;;;4198923;28;20068;-89
2021/01/20 04:17:55;;;;;;;2.10;1.42;;;8.50;99.90;;;;;;4181533;28;20044;-89
2021/01/20 04:19:56;;;;;;;0.32;0.20;;;8.50;99.90;;;;;;4165501;28;20073;-89
2021/01/20 04:21:57;;;;;;;0.35;0.32;;;8.50;99.90;;;;;;4182617;28;20141;-89
2021/01/20 04:23:59;;;;;;;1.77;0.32;;;8.50;99.90;;;;;;4165130;28;20049;-89
2021/01/20 04:26:00;;;;;;;0.43;0.38;;;8.50;99.90;;;;;;4182223;28;20040;-89
2021/01/20 04:28:01;;;;;;;0.20;0.20;;;8.50;99.90;;;;;;4181709;28;20055;-90
2021/01/20 04:30:05;;;;;;;0.90;0.90;;;8.50;99.80;;;;;;4165363;28;20048;-89
2021/01/20 04:32:06;;;;;;;0.20;0.20;;;8.60;99.50;;;;;;4165280;28;20049;-89
2021/01/20 04:34:10;;;;;;;2.95;0.30;;;8.60;99.30;;;;;;4178522;28;20049;-89
2021/01/20 04:36:12;;;;;;;0.85;0.50;;;8.60;99.40;;;;;;4178457;28;20077;-89
2021/01/20 04:38:13;;;;;;;1.40;0.60;;;8.70;99.40;;;;;;4164259;28;20042;-89
2021/01/20 04:40:14;;;;;;;1.23;0.80;;;8.70;99.50;;;;;;4182161;28;20077;-90
2021/01/20 04:42:15;;;;;;;0.30;0.25;;;8.70;99.40;;;;;;4164665;28;20041;-89
2021/01/20 04:44:17;;;;;;;0.20;0.20;;;8.70;99.50;;;;;;4165270;28;20129;-89
2021/01/20 04:46:18;;;;;;;0.43;0.35;;;8.70;99.50;;;;;;4181908;28;20383;-89
2021/01/20 04:48:19;;;;;;;1.80;1.45;;;8.70;99.50;;;;;;4180892;28;20465;-89
2021/01/20 04:50:21;;;;;;;0.45;0.45;;;8.80;99.40;;;;;;4180703;28;20064;-89
2021/01/20 04:52:23;;;;;;;0.35;0.35;;;8.80;99.30;;;;;;4181796;28;20584;-89
2021/01/20 04:54:24;;;;;;;0.73;0.40;;;8.90;99.40;;;;;;4181313;28;20044;-89
2021/01/20 04:56:25;;;;;;;0.63;0.63;;;8.80;99.30;;;;;;4163610;28;20506;-89
2021/01/20 04:58:27;;;;;;;0.45;0.45;;;8.90;99.30;;;;;;4181028;28;20045;-89
2021/01/20 05:00:28;;;;;;;0.50;0.25;;;8.90;99.40;;;;;;4167285;28;20073;-89
2021/01/20 05:02:29;;;;;;;0.10;0.10;;;9.00;99.40;;;;;;4160268;28;20052;-89
2021/01/20 05:04:31;;;;;;;0.68;0.60;;;9.00;99.40;;;;;;4181793;28;20669;-89
2021/01/20 05:06:32;;;;;;;0.30;0.30;;;9.10;99.40;;;;;;4164355;28;20407;-90
2021/01/20 05:08:33;;;;;;;0.63;0.50;;;9.20;99.80;;;;;;4196062;28;20051;-89
2021/01/20 05:10:35;;;;;;;0.57;0.57;;;9.20;99.40;;;;;;4181622;28;20061;-89
2021/01/20 05:12:40;;;;;;;0.40;0.40;;;9.30;99.20;;;;;;4164369;28;20141;-88
2021/01/20 05:14:42;;;;;;;0.65;0.65;;;9.30;99.40;;;;;;4180497;28;20127;-89
2021/01/20 05:16:49;;;;;;;1.75;0.68;;;9.30;99.50;;;;;;4180573;28;20136;-90
2021/01/20 05:18:51;;;;;;;1.77;1.50;;;9.30;99.60;;;;;;4197715;28;20518;-88
2021/01/20 05:20:52;;;;;;;0.80;0.52;;;9.30;99.70;;;;;;4162117;28;20049;-88
2021/01/20 05:22:58;;;;;;;0.30;0.20;;;9.20;99.80;;;;;;4164547;28;20060;-88
2021/01/20 05:25:03;;;;;;;0.35;0.35;;;9.20;99.90;;;;;;4197294;28;20076;-89
2021/01/20 05:27:04;;;;;;;;;;;9.20;99.90;;;;;;4169102;28;20049;-90
2021/01/20 05:29:06;;;;;;;0.52;0.52;;;9.20;99.90;;;;;;4181027;28;19956;-88
2021/01/20 05:31:07;;;;;;;0.47;0.32;;;9.20;99.90;;;;;;4164766;28;20148;-88
2021/01/20 05:33:09;;;;;;;0.20;0.20;;;9.20;99.90;;;;;;4177626;28;20477;-88
2021/01/20 05:35:11;;;;;;;0.73;0.32;;;9.20;99.90;;;;;;4177758;28;20056;-88
2021/01/20 05:37:12;;;;;;;0.13;0.10;;;9.10;99.90;;;;;;4181025;28;20144;-90
2021/01/20 05:39:18;;;;;;;0.75;0.75;;;9.20;99.90;;;;;;4180346;28;20045;-89
2021/01/20 05:41:23;;;;;;;0.47;0.47;;;9.20;99.90;;;;;;4180751;28;20100;-88
2021/01/20 05:43:24;;;;;;;1.25;1.13;;;9.20;99.90;;;;;;4181334;28;20136;-88
2021/01/20 05:45:26;;;;;;;2.50;0.63;;;9.20;99.90;;;;;;4177971;28;20135;-88
2021/01/20 05:47:27;;;;;;;0.22;0.20;;;9.20;99.90;;;;;;4180631;28;20083;-89
2021/01/20 05:49:29;;;;;;;4.90;1.17;;;9.30;99.90;;;;;;4147821;28;20498;-88
2021/01/20 05:51:40;;;;;;;0.40;0.30;;;9.30;99.90;;;;;;4179638;28;20055;-88
2021/01/20 05:53:54;;;;;;;1.75;1.55;;;9.40;99.90;;;;;;4176889;28;20048;-89
2021/01/20 05:56:03;;;;;;;0.80;0.60;;;9.40;99.90;;;;;;4195144;28;20065;-88
2021/01/20 05:58:05;;;;;;;3.72;0.85;;;9.40;99.90;;;;;;4209918;28;20075;-88
2021/01/20 06:00:14;;;;;;;1.23;0.55;;;9.40;99.90;;;;;;4195916;28;20051;-88
2021/01/20 06:02:16;;;;;;;0.30;0.30;;;9.40;99.90;;;;;;4163270;28;20622;-88
2021/01/20 06:04:18;;;;;;;0.50;0.30;;;9.40;99.90;;;;;;4181769;28;20155;-87
2021/01/20 06:06:20;;;;;;;0.65;0.65;;;9.40;99.90;;;;;;4174579;28;20552;-88
2021/01/20 06:08:21;;;;;;;0.80;0.77;;;9.50;99.90;;;;;;4164456;28;20049;-88
2021/01/20 06:10:23;;;;;;;0.47;0.43;;;9.50;99.80;;;;;;4179773;28;20445;-87
2021/01/20 06:12:25;;;;;;;0.20;0.20;;;9.50;99.80;;;;;;4179359;28;20048;-88
2021/01/20 06:14:26;;;;;;;1.23;0.30;;;9.60;99.70;;;;;;4177713;28;20580;-88
2021/01/20 06:16:28;;;;;;;0.40;0.40;;;9.60;99.60;;;;;;4164010;28;20067;-88
2021/01/20 06:18:35;;;;;;;0.20;0.20;;;9.60;99.60;;;;;;4163228;28;20050;-88
2021/01/20 06:20:36;;;;;;;0.10;0.10;;;9.60;99.60;;;;;;4163052;28;20133;-90
2021/01/20 06:22:56;;;;;;;0.20;0.20;;;9.60;99.50;;;;;;4176948;28;20501;-88
2021/01/20 06:25:09;;;;;;;0.68;0.38;;;9.60;99.60;;;;;;4174650;28;20060;-88
2021/01/20 06:27:25;;;;;;;0.40;0.40;;;9.60;99.60;;;;;;4178247;28;20135;-90
2021/01/20 06:29:28;;;;;;;1.38;0.22;;;9.60;99.60;;;;;;4163848;28;20075;-89
2021/01/20 06:31:29;;;;;;;0.93;0.50;;;9.60;99.50;;;;;;4164157;28;20053;-89
2021/01/20 06:33:30;;;;;;;0.30;0.30;;;9.60;99.50;;;;;;4179172;28;20053;-88
2021/01/20 06:35:48;;;;;;;0.82;0.75;;;9.60;99.50;;;;;;4165675;28;20057;-89
2021/01/20 06:37:52;;;;;;;0.20;0.20;;;9.70;99.60;;;;;;4166301;28;20053;-91
2021/01/20 06:39:53;;;;;;;0.30;0.30;;;9.60;99.50;;;;;;4196973;28;20059;-90
2021/01/20 06:41:57;;;;;;;0.17;0.17;;;9.70;99.50;;;;;;4162711;28;20527;-89
2021/01/20 06:44:09;;;;;;;0.80;0.65;;;9.70;99.40;;;;;;4194041;28;20640;-90
2021/01/20 06:46:15;;;;;;;0.40;0.20;;;9.70;99.40;;;;;;4160253;28;20049;-90
2021/01/20 06:48:17;;;;;;;0.30;0.20;;;9.60;99.40;;;;;;4182413;28;20107;-89
2021/01/20 06:50:19;;;;;;;1.02;0.30;;;9.60;99.60;;;;;;4175332;28;20050;-89
2021/01/20 06:52:20;;;;;;;0.30;0.30;;;9.60;99.60;;;;;;4177912;28;20045;-90
2021/01/20 06:54:22;;;;;;;0.20;0.20;;;9.70;99.70;;;;;;4196308;28;20049;-90
2021/01/20 06:56:32;;;;;;;0.30;0.30;;;9.60;99.60;;;;;;4163696;28;20049;-89
2021/01/20 06:58:33;;;;;;;0.38;0.30;;;9.60;99.70;;;;;;4212966;28;20109;-89
2021/01/20 07:00:35;;;;;;;0.88;0.80;;;9.60;99.80;;;;;;4162786;28;20085;-89
2021/01/20 07:02:37;;;;;;;0.20;0.20;;;9.70;99.90;;;;;;4179717;28;20088;-89
2021/01/20 07:04:43;;;;;;;0.30;0.30;;;9.60;99.70;;;;;;4163631;28;20049;-89
2021/01/20 07:06:45;;;;;;;0.20;0.20;;;9.60;99.70;;;;;;4195919;28;20127;-89
2021/01/20 07:08:52;;;;;;;0.20;0.20;;;9.60;99.70;;;;;;4156610;28;20050;-89
2021/01/20 07:11:00;;;;;;;0.52;0.40;;;9.60;99.60;;;;;;4179543;28;20540;-90
2021/01/20 07:13:10;;;;;;;0.55;0.55;;;9.60;99.70;;;;;;4179619;28;20055;-90
2021/01/20 07:15:12;;;;;;;1.25;1.15;;;9.70;99.80;;;;;;4196164;28;20059;-88
2021/01/20 07:17:13;;;;;;;0.30;0.30;;;9.70;99.80;;;;;;4175660;28;20533;-86
2021/01/20 07:19:14;;;;;;;2.05;0.50;;;9.70;99.90;;;;;;4210307;28;20075;-85
2021/01/20 07:21:16;;;;;;;0.20;0.20;;;9.80;99.90;;;;;;4180017;28;20041;-93
2021/01/20 07:23:17;;;;;;;0.30;0.20;;;9.80;99.90;;;;;;4211786;28;20045;-96
2021/01/20 07:25:18;;;;;;;0.30;0.20;;;9.90;99.80;;;;;;4197630;28;20044;-95
2021/01/20 07:27:20;;;;;;;0.25;0.25;;;9.90;99.60;;;;;;4179353;28;20124;-93
2021/01/20 07:29:22;;;;;;;0.20;0.20;;;9.90;99.60;;;;;;4182475;28;20108;-91
2021/01/20 07:31:24;;;;;;;0.20;0.20;;;9.90;99.50;;;;;;4207194;28;20497;-87
2021/01/20 07:33:25;;;;;;;0.63;0.57;;;9.90;99.60;;;;;;4199553;28;20079;-92
2021/01/20 07:35:28;;;;;;;0.20;0.20;;;9.90;99.50;;;;;;4184418;28;20049;-92
2021/01/20 07:37:29;;;;;;;0.28;0.20;;;9.90;99.70;;;;;;4187170;28;20056;-90
2021/01/20 07:39:30;;;;;;;0.22;0.22;;;9.90;99.90;;;;;;4195358;28;20055;-90
2021/01/20 07:41:31;;;;;;;0.60;0.60;;;9.90;99.60;;;;;;4195574;28;20041;-90
2021/01/20 07:43:33;;;;;;;0.75;0.65;;;9.90;99.50;;;;;;4200048;28;20058;-86
2021/01/20 07:45:36;;;;;;;0.40;0.30;;;9.90;99.60;;;;;;4195234;28;20048;-85
2021/01/20 07:47:46;;;;;;;0.22;0.22;;;9.90;99.50;;;;;;4181573;28;20496;-86
2021/01/20 07:49:52;;;;;;;0.28;0.28;;;9.90;99.30;;;;;;4197170;28;20520;-87
2021/01/20 07:51:58;;;;;;;;;;;9.90;99.10;;;;;;4181178;28;20052;-85
2021/01/20 07:54:03;;;;;;;0.20;0.20;;;9.90;99.10;;;;;;4198093;28;19921;-84
2021/01/20 07:56:04;;;;;;;2.40;1.27;;;9.90;98.90;;;;;;4196686;28;20056;-82
2021/01/20 07:58:06;;;;;;;0.20;0.20;;;10.00;98.70;;;;;;4199544;28;20099;-85
2021/01/20 08:00:09;;;;;;;1.27;1.17;;;10.00;98.70;;;;;;4179820;28;20580;-86
2021/01/20 08:02:14;;;;;;;0.50;0.50;;;9.90;98.70;;;;;;4180217;28;20047;-85
2021/01/20 08:04:22;;;;;;;0.20;0.20;;;10.00;98.70;;;;;;4198574;28;20425;-85
2021/01/20 08:06:24;;;;;;;0.10;0.10;;;10.00;98.60;;;;;;4195406;28;20128;-86
2021/01/20 08:08:25;;;;;;;0.10;0.10;;;10.00;98.50;;;;;;4196515;28;20076;-86
2021/01/20 08:10:27;;;;;;;0.22;0.22;;;10.00;98.60;;;;;;4198591;28;20127;-85
2021/01/20 08:12:29;;;;;;;0.45;0.45;;;10.00;98.30;;;;;;4196170;28;20539;-86
2021/01/20 08:14:31;;;;;;;0.30;0.30;;;10.10;98.20;;;;;;4196174;28;20041;-85
2021/01/20 08:16:33;;;;;;;0.15;0.15;;;10.10;98.10;;;;;;4198810;28;20337;-85
2021/01/20 08:18:35;;;;;;;0.60;0.55;;;10.10;98.00;;;;;;4180121;28;20390;-85
2021/01/20 08:20:36;;;;;;;0.20;0.20;;;10.10;98.00;;;;;;4194896;28;20045;-85
2021/01/20 08:22:45;;;;;;;0.30;0.20;;;10.10;97.70;;;;;;4181451;28;20489;-85
2021/01/20 08:24:53;;;;;;;0.20;0.20;;;10.20;97.60;;;;;;4214123;28;20040;-84
2021/01/20 08:26:58;;;;;;;0.70;0.50;;;10.20;97.40;;;;;;4197444;28;20151;-86
2021/01/20 08:29:07;;;;;;;0.50;0.50;;;10.20;97.20;;;;;;4181001;28;20049;-83
2021/01/20 08:31:20;;;;;;;1.30;0.20;;;10.30;97.00;;;;;;4194146;28;20060;-87
2021/01/20 08:33:22;;;;;;;0.40;0.40;;;10.30;97.30;;;;;;4196220;28;20126;-84
2021/01/20 08:35:34;;;;;;;0.10;0.10;;;10.30;97.00;;;;;;4196970;28;20037;-85
2021/01/20 08:37:36;;;;;;;1.23;1.23;;;10.30;96.70;;;;;;4197462;28;20048;-86
2021/01/20 08:39:50;;;;;;;1.67;0.35;;;10.40;96.70;;;;;;4211968;28;20054;-86
2021/01/20 08:42:17;;;;;;;0.10;0.10;;;10.40;96.70;;;;;;4195751;28;20040;-85
2021/01/20 08:44:18;;;;;;;0.22;0.20;;;10.40;96.60;;;;;;4196556;28;20040;-86
2021/01/20 08:46:24;;;;;;;0.22;0.20;;;10.40;96.50;;;;;;4199323;28;20044;-85
2021/01/20 08:48:27;;;;;;;;;;;10.40;96.20;;;;;;4195185;28;20099;-86
2021/01/20 08:50:29;;;;;;;0.20;0.20;;;10.40;96.10;;;;;;4196892;28;19991;-86
2021/01/20 08:52:51;;;;;;;0.20;0.20;;;10.40;96.10;;;;;;4198679;28;20083;-85
2021/01/20 08:54:52;;;;;;;0.50;0.50;;;10.50;96.00;;;;;;4196077;28;20127;-84
2021/01/20 08:57:14;;;;;;;2.60;1.10;;;10.50;95.50;;;;;;4195448;28;20211;-86
2021/01/20 08:59:15;;;;;;;0.60;0.20;;;10.50;95.40;;;;;;4196677;28;20052;-85
2021/01/20 09:01:16;;;;;;;0.30;0.30;;;10.60;95.10;;;;;;4198502;28;20516;-85
2021/01/20 09:03:37;;;;;;;0.10;0.10;;;10.50;95.00;;;;;;4196663;28;20044;-85
2021/01/20 09:05:38;;;;;;;1.00;0.38;;;10.60;95.00;;;;;;4195374;28;20139;-84
2021/01/20 09:07:40;;;;;;;0.20;0.20;;;10.60;94.70;;;;;;4196758;28;20059;-85
2021/01/20 09:09:41;;;;;;;0.75;0.30;;;10.60;94.40;;;;;;4197474;28;20052;-84
2021/01/20 09:11:42;;;;;;;0.10;0.10;;;10.70;94.30;;;;;;4196157;28;20052;-85
2021/01/20 09:13:44;;;;;;;0.10;0.10;;;10.70;94.70;;;;;;4197091;28;20045;-86
2021/01/20 09:15:50;;;;;;;0.40;0.38;;;10.70;94.00;;;;;;4196527;28;20516;-85
2021/01/20 09:17:51;;;;;;;0.20;0.20;;;10.70;94.10;;;;;;4178736;28;20480;-85
2021/01/20 09:19:53;;;;;;;0.57;0.35;;;10.80;94.10;;;;;;4196601;28;20053;-85
2021/01/20 09:21:54;;;;;;;0.22;0.20;;;10.80;94.20;;;;;;4197094;28;20044;-85
2021/01/20 09:23:55;;;;;;;0.93;0.40;;;10.80;93.90;;;;;;4195900;28;20052;-86
2021/01/20 09:25:57;;;;;;;1.15;0.77;;;10.80;93.80;;;;;;4196429;28;20055;-85
2021/01/20 09:27:58;;;;;;;1.40;0.30;;;10.80;93.80;;;;;;4196962;28;20135;-86
2021/01/20 09:30:00;;;;;;;2.10;0.40;;;10.80;93.70;;;;;;4194926;28;20123;-86
2021/01/20 09:32:01;;;;;;;0.30;0.30;;;10.90;93.70;;;;;;4196641;28;20140;-84
2021/01/20 09:34:02;;;;;;;0.15;0.15;;;10.90;93.80;;;;;;4196873;28;20087;-83
2021/01/20 09:36:04;;;;;;;0.55;0.30;;;10.90;93.80;;;;;;4194908;28;20425;-85
2021/01/20 09:38:05;;;;;;;3.13;1.10;;;10.90;93.90;;;;;;4195036;28;20041;-85
2021/01/20 09:40:08;;;;;;;0.20;0.20;;;11.00;94.10;;;;;;4197812;28;20456;-85
2021/01/20 09:42:10;;;;;;;0.52;0.30;;;11.00;94.00;;;;;;4194374;28;20041;-83
2021/01/20 09:44:11;;;;;;;0.20;0.10;;;11.00;94.00;;;;;;4196211;28;20047;-85
2021/01/20 09:46:12;;;;;;;0.30;0.30;;;11.00;93.90;;;;;;4196836;28;20051;-84
2021/01/20 09:48:15;;;;;;;0.20;0.20;;;11.00;93.90;;;;;;4195746;28;20060;-84
2021/01/20 09:50:17;;;;;;;0.30;0.30;;;11.00;94.00;;;;;;4195718;28;20081;-85
2021/01/20 09:52:18;;;;;;;0.10;0.10;;;11.10;94.00;;;;;;4197060;28;20087;-85
2021/01/20 09:54:19;;;;;;;1.55;0.40;;;11.10;93.90;;;;;;4194661;28;20041;-85
2021/01/20 09:56:20;;;;;;;0.20;0.13;;;11.10;93.60;;;;;;4194511;28;20554;-84
2021/01/20 09:58:21;;;;;;;0.32;0.30;;;11.10;93.60;;;;;;4197613;28;20047;-87
2021/01/20 10:00:23;;;;;;;0.35;0.30;;;11.20;93.90;;;;;;4194289;28;20079;-85
2021/01/20 10:02:24;;;;;;;1.65;1.17;;;11.20;93.50;;;;;;4194607;28;20051;-86
2021/01/20 10:04:25;;;;;;;0.30;0.30;;;11.20;93.50;;;;;;4196681;28;20056;-85
2021/01/20 10:06:31;;;;;;;0.15;0.15;;;11.20;93.40;;;;;;4195426;28;20041;-84
2021/01/20 10:08:33;;;;;;;1.58;1.48;;;11.20;93.20;;;;;;4194919;28;20044;-86
2021/01/20 10:10:34;;;;;;;0.15;0.15;;;11.20;92.90;;;;;;4196117;28;20127;-85
2021/01/20 10:12:38;;;;;;;0.35;0.35;;;11.30;92.90;;;;;;4194814;28;20054;-84
2021/01/20 10:14:39;;;;;;;0.17;0.17;;;11.30;93.30;;;;;;4178472;28;20051;-85
2021/01/20 10:16:41;;;;;;;0.40;0.40;;;11.30;92.90;;;;;;4195080;28;20092;-85
2021/01/20 10:18:44;;;;;;;0.15;0.15;;;11.40;92.70;;;;;;4193928;28;20045;-84
2021/01/20 10:20:50;;;;;;;0.10;0.10;;;11.40;92.60;;;;;;4178118;28;20052;-85
2021/01/20 10:22:51;;;;;;;0.73;0.73;;;11.40;92.70;;;;;;4178651;28;20067;-84
2021/01/20 10:24:52;;;;;;;0.20;0.20;;;11.50;92.60;;;;;;4195900;28;20131;-85
2021/01/20 10:26:54;;;;;;;0.50;0.50;;;11.40;92.70;;;;;;4195893;28;20491;-82
2021/01/20 10:28:55;;;;;;;0.20;0.20;;;11.50;92.80;;;;;;4194973;28;20063;-85
2021/01/20 10:30:56;;;;;;;0.20;0.20;;;11.50;93.00;;;;;;4197310;28;20059;-85
2021/01/20 10:33:00;;;;;;;0.20;0.20;;;11.40;92.80;;;;;;4194047;28;20052;-85
2021/01/20 10:35:02;;;;;;;1.92;0.28;;;11.50;93.10;;;;;;4194918;28;20127;-84
2021/01/20 10:37:04;;;;;;;0.10;0.10;;;11.50;93.10;;;;;;4196715;28;20056;-86
2021/01/20 10:39:07;;;;;;;2.72;0.40;;;11.50;93.20;;;;;;4195391;28;20037;-85
2021/01/20 10:41:08;;;;;;;0.82;0.43;;;11.60;93.00;;;;;;4177663;28;20059;-87
2021/01/20 10:43:10;;;;;;;0.38;0.38;;;11.60;93.00;;;;;;4196810;28;20548;-86
2021/01/20 10:45:11;;;;;;;1.85;1.27;;;11.60;93.00;;;;;;4194295;28;20135;-85
2021/01/20 10:47:13;;;;;;;0.17;0.10;;;11.60;93.00;;;;;;4193057;28;20044;-84